Time;durP1;ratioP1;P1;durP2;ratioP2;P2;SDS_P1;SDS_P2;PMS_P1;PMS_P2;Temp;Humidity;BMP_temperature;BMP_pressure;BME280_temperature;BME280_humidity;BME280_pressure;Samples;Min_cycle;Max_cycle;Signal;HPM_P1;HPM_P2
2023/06/24 00:02:12;;;;;;;12.15;9.82;;;17.10;99.90;;;;;;4918659;29;20423;-82
2023/06/24 00:04:38;;;;;;;10.25;9.00;;;16.90;99.90;;;;;;4938977;28;20440;-76
2023/06/24 00:07:04;;;;;;;11.07;9.65;;;16.90;99.90;;;;;;4978831;28;20426;-80
2023/06/24 00:09:30;;;;;;;10.52;9.52;;;16.90;99.90;;;;;;5037343;28;20429;-82
2023/06/24 00:11:56;;;;;;;11.32;10.23;;;16.60;99.90;;;;;;5021985;28;20415;-78
2023/06/24 00:14:24;;;;;;;10.85;9.73;;;16.50;99.90;;;;;;4998167;28;20442;-80
2023/06/24 00:16:51;;;;;;;11.73;10.52;;;16.60;99.90;;;;;;5012467;28;20414;-79
2023/06/24 00:19:27;;;;;;;12.27;10.63;;;16.60;99.90;;;;;;5040525;28;20418;-79
2023/06/24 00:21:53;;;;;;;11.07;10.05;;;16.70;99.90;;;;;;5040031;28;20403;-79
2023/06/24 00:24:21;;;;;;;13.35;11.35;;;16.70;99.90;;;;;;4997542;28;20450;-80
2023/06/24 00:26:47;;;;;;;13.15;11.30;;;16.60;99.90;;;;;;4938967;29;20439;-79
2023/06/24 00:29:13;;;;;;;11.82;10.73;;;16.70;99.90;;;;;;4963329;28;20427;-79
2023/06/24 00:31:38;;;;;;;12.57;11.27;;;16.80;99.90;;;;;;4981801;28;20495;-79
2023/06/24 00:34:04;;;;;;;13.00;11.80;;;16.80;99.90;;;;;;4943217;28;20970;-79
2023/06/24 00:36:31;;;;;;;14.07;12.10;;;16.70;99.90;;;;;;5032736;28;20771;-81
2023/06/24 00:39:03;;;;;;;13.80;11.85;;;16.80;99.90;;;;;;5030038;28;20485;-79
2023/06/24 00:41:33;;;;;;;13.13;11.88;;;16.70;99.90;;;;;;4980310;28;20463;-79
2023/06/24 00:43:59;;;;;;;16.75;12.90;;;16.70;99.90;;;;;;4940867;28;20470;-80
2023/06/24 00:46:26;;;;;;;12.38;11.18;;;16.70;99.90;;;;;;4984807;28;20760;-77
2023/06/24 00:48:56;;;;;;;14.45;11.90;;;16.70;99.90;;;;;;4931084;28;20490;-78
2023/06/24 00:51:26;;;;;;;13.05;11.77;;;16.70;99.90;;;;;;4913622;28;21013;-80
2023/06/24 00:53:53;;;;;;;12.88;11.48;;;16.80;99.90;;;;;;4961288;28;20423;-80
2023/06/24 00:56:21;;;;;;;12.15;10.85;;;16.80;99.90;;;;;;4977322;28;21130;-79
2023/06/24 00:58:48;;;;;;;13.65;11.63;;;16.80;99.90;;;;;;4932488;28;20428;-77
2023/06/24 01:01:15;;;;;;;12.73;11.47;;;16.80;99.90;;;;;;4930208;28;20515;-79
2023/06/24 01:03:41;;;;;;;13.63;11.65;;;16.80;99.90;;;;;;4931618;28;20443;-79
2023/06/24 01:06:08;;;;;;;12.65;11.35;;;16.70;99.90;;;;;;4942174;29;20460;-79
2023/06/24 01:08:34;;;;;;;12.98;11.73;;;16.60;99.90;;;;;;4956074;28;20489;-79
2023/06/24 01:11:01;;;;;;;15.43;12.88;;;16.60;99.90;;;;;;4984956;28;20404;-81
2023/06/24 01:13:27;;;;;;;14.00;12.60;;;16.60;99.90;;;;;;4933981;28;20412;-81
2023/06/24 01:15:52;;;;;;;14.02;12.75;;;16.50;99.90;;;;;;5014122;28;21193;-82
2023/06/24 01:18:30;;;;;;;14.20;12.70;;;16.70;99.90;;;;;;5032045;28;20924;-79
2023/06/24 01:21:05;;;;;;;13.68;11.23;;;16.60;99.90;;;;;;5018822;28;20502;-81
2023/06/24 01:24:09;;;;;;;13.27;12.07;;;16.50;99.90;;;;;;4967352;28;20443;-80
2023/06/24 01:26:53;;;;;;;14.43;13.00;;;16.50;99.90;;;;;;4911982;29;20453;-79
2023/06/24 01:29:22;;;;;;;14.07;12.68;;;16.50;99.90;;;;;;4931119;28;20446;-80
2023/06/24 01:32:03;;;;;;;13.75;12.32;;;16.40;99.90;;;;;;4931184;29;20483;-78
2023/06/24 01:34:44;;;;;;;14.98;13.50;;;16.40;99.90;;;;;;4930186;28;20443;-80
2023/06/24 01:37:14;;;;;;;14.70;13.27;;;16.40;99.90;;;;;;5031358;28;20450;-82
2023/06/24 01:40:09;;;;;;;19.95;14.55;;;16.30;99.90;;;;;;4996007;28;20447;-79
2023/06/24 01:42:38;;;;;;;15.10;13.60;;;16.40;99.90;;;;;;4949722;28;21092;-79
2023/06/24 01:45:10;;;;;;;15.43;13.85;;;16.20;99.90;;;;;;4930125;28;20435;-79
2023/06/24 01:47:39;;;;;;;15.63;14.17;;;16.20;99.90;;;;;;4928760;28;20493;-80
2023/06/24 01:50:09;;;;;;;16.65;14.65;;;16.20;99.90;;;;;;4973712;28;20921;-78
2023/06/24 01:52:35;;;;;;;17.77;15.55;;;16.30;99.90;;;;;;4988274;28;20444;-80
2023/06/24 01:55:04;;;;;;;17.42;15.55;;;16.30;99.90;;;;;;5004401;28;20440;-78
2023/06/24 01:57:32;;;;;;;22.90;16.58;;;16.30;99.90;;;;;;4930578;28;20431;-80
2023/06/24 02:00:00;;;;;;;17.48;15.60;;;16.20;99.90;;;;;;4931790;28;20502;-79
2023/06/24 02:02:28;;;;;;;18.48;16.55;;;16.20;99.90;;;;;;4930405;29;20459;-81
2023/06/24 02:04:55;;;;;;;17.95;16.10;;;16.10;99.90;;;;;;4960641;28;20423;-82
2023/06/24 02:07:23;;;;;;;17.98;16.10;;;16.10;99.90;;;;;;4952318;28;20437;-80
2023/06/24 02:09:51;;;;;;;17.20;15.50;;;16.10;99.90;;;;;;4928988;28;20440;-80
2023/06/24 02:12:17;;;;;;;18.80;16.85;;;16.10;99.90;;;;;;4929955;29;20508;-81
2023/06/24 02:14:43;;;;;;;18.70;16.70;;;16.10;99.90;;;;;;4947754;28;20419;-80
2023/06/24 02:17:11;;;;;;;18.90;16.90;;;16.20;99.90;;;;;;4963619;28;20473;-80
2023/06/24 02:19:38;;;;;;;17.95;15.93;;;16.20;99.90;;;;;;4932755;28;21202;-80
2023/06/24 02:22:09;;;;;;;19.75;17.38;;;16.20;99.90;;;;;;4978000;28;20427;-80
2023/06/24 02:24:36;;;;;;;19.95;16.48;;;16.20;99.90;;;;;;4968399;28;20437;-80
2023/06/24 02:27:03;;;;;;;18.25;15.52;;;16.20;99.90;;;;;;4928750;28;20509;-80
2023/06/24 02:29:30;;;;;;;21.70;17.33;;;16.20;99.90;;;;;;5010831;28;20988;-76
2023/06/24 02:31:56;;;;;;;19.40;16.05;;;16.20;99.90;;;;;;4982437;28;20423;-79
2023/06/24 02:34:24;;;;;;;17.67;15.83;;;16.20;99.90;;;;;;5029520;28;20411;-80
2023/06/24 02:36:49;;;;;;;22.05;16.83;;;16.10;99.90;;;;;;4944993;28;20432;-80
2023/06/24 02:39:15;;;;;;;16.63;14.93;;;16.00;99.90;;;;;;4929871;28;20428;-79
2023/06/24 02:41:42;;;;;;;16.70;14.90;;;16.00;99.90;;;;;;4933708;28;20776;-78
2023/06/24 02:44:07;;;;;;;17.65;15.68;;;16.10;99.90;;;;;;4906243;28;21344;-80
2023/06/24 02:46:36;;;;;;;17.03;15.33;;;16.10;99.90;;;;;;4928552;28;20428;-79
2023/06/24 02:49:02;;;;;;;16.05;14.43;;;16.00;99.90;;;;;;4929503;29;20455;-81
2023/06/24 02:51:29;;;;;;;18.33;15.45;;;16.00;99.90;;;;;;4960980;28;20820;-80
2023/06/24 02:53:57;;;;;;;15.30;13.80;;;15.90;99.90;;;;;;4932981;28;21332;-77
2023/06/24 02:56:26;;;;;;;16.52;14.82;;;16.00;99.90;;;;;;5007556;28;20535;-80
2023/06/24 02:58:52;;;;;;;17.17;15.45;;;16.00;99.90;;;;;;4932590;28;20447;-80
2023/06/24 03:01:24;;;;;;;17.08;15.45;;;16.00;99.90;;;;;;4928175;28;20534;-80
2023/06/24 03:03:54;;;;;;;17.40;15.73;;;16.00;99.90;;;;;;4918912;29;20806;-79
2023/06/24 03:06:21;;;;;;;17.38;15.15;;;16.00;99.90;;;;;;4983543;28;20427;-77
2023/06/24 03:08:49;;;;;;;18.02;15.00;;;16.00;99.90;;;;;;5035884;28;20403;-80
2023/06/24 03:11:15;;;;;;;19.50;14.75;;;16.10;99.90;;;;;;4989662;28;20461;-79
2023/06/24 03:13:41;;;;;;;16.95;15.18;;;16.00;99.90;;;;;;5043896;28;20496;-77
2023/06/24 03:16:12;;;;;;;17.92;15.35;;;15.90;99.90;;;;;;4998890;28;20503;-80
2023/06/24 03:18:41;;;;;;;17.37;15.43;;;15.90;99.90;;;;;;4934863;28;20541;-81
2023/06/24 03:21:07;;;;;;;16.70;15.20;;;15.80;99.90;;;;;;4934850;28;20423;-80
2023/06/24 03:23:33;;;;;;;16.17;14.48;;;15.80;99.90;;;;;;4916759;29;20940;-83
2023/06/24 03:25:59;;;;;;;17.30;15.77;;;15.80;99.90;;;;;;4937432;28;20414;-81
2023/06/24 03:28:24;;;;;;;16.73;14.98;;;15.90;99.90;;;;;;4933127;29;20465;-80
2023/06/24 03:30:50;;;;;;;17.95;16.02;;;15.90;99.90;;;;;;4945126;28;20420;-78
2023/06/24 03:33:16;;;;;;;17.27;14.95;;;15.90;99.90;;;;;;5015647;28;20473;-79
2023/06/24 03:35:43;;;;;;;16.08;14.50;;;15.90;99.90;;;;;;5025946;28;20431;-80
2023/06/24 03:38:09;;;;;;;16.75;14.35;;;15.90;99.90;;;;;;4978765;28;20756;-81
2023/06/24 03:40:34;;;;;;;16.45;14.82;;;16.00;99.90;;;;;;4915073;28;20417;-78
2023/06/24 03:43:00;;;;;;;15.50;14.10;;;15.90;99.90;;;;;;4938625;29;20452;-79
2023/06/24 03:45:26;;;;;;;16.25;14.63;;;15.90;99.90;;;;;;4985285;28;20934;-79
2023/06/24 03:47:52;;;;;;;15.38;13.85;;;15.90;99.90;;;;;;4991093;28;20443;-79
2023/06/24 03:50:18;;;;;;;16.58;14.57;;;16.00;99.90;;;;;;4940293;29;20458;-80
2023/06/24 03:52:44;;;;;;;15.93;13.55;;;16.00;99.90;;;;;;4942665;28;20431;-79
2023/06/24 03:55:10;;;;;;;15.38;13.88;;;16.00;99.90;;;;;;4939033;29;20463;-83
2023/06/24 03:57:37;;;;;;;15.98;14.38;;;16.10;99.90;;;;;;4935120;29;20507;-80
2023/06/24 04:00:13;;;;;;;15.73;14.07;;;16.10;99.90;;;;;;4935094;28;20424;-81
2023/06/24 04:02:38;;;;;;;15.52;13.80;;;16.00;99.90;;;;;;4931852;29;21006;-82
2023/06/24 04:05:06;;;;;;;16.40;14.68;;;16.10;99.90;;;;;;4932092;29;20428;-82
2023/06/24 04:07:32;;;;;;;17.10;14.40;;;16.10;99.90;;;;;;5024320;28;20804;-82
2023/06/24 04:09:58;;;;;;;16.30;14.70;;;16.10;99.90;;;;;;4945768;28;20439;-80
2023/06/24 04:12:24;;;;;;;16.60;14.90;;;16.00;99.90;;;;;;4923762;28;20514;-79
2023/06/24 04:14:50;;;;;;;16.00;14.37;;;16.20;99.90;;;;;;4932975;28;20464;-78
2023/06/24 04:17:15;;;;;;;19.93;14.77;;;16.20;99.90;;;;;;5007038;28;20833;-81
2023/06/24 04:19:42;;;;;;;14.63;13.23;;;16.20;99.90;;;;;;4932033;29;20419;-77
2023/06/24 04:22:07;;;;;;;15.90;14.25;;;16.20;99.90;;;;;;4970596;28;20415;-79
2023/06/24 04:24:33;;;;;;;15.90;14.30;;;16.20;99.90;;;;;;4968095;28;20493;-81
2023/06/24 04:26:59;;;;;;;15.13;13.63;;;16.20;99.90;;;;;;4937235;28;20451;-80
2023/06/24 04:29:24;;;;;;;16.70;15.02;;;16.30;99.90;;;;;;4932760;29;20526;-82
2023/06/24 04:31:50;;;;;;;15.65;14.15;;;16.20;99.90;;;;;;4955084;28;20430;-81
2023/06/24 04:34:16;;;;;;;15.60;14.00;;;16.10;99.90;;;;;;4995564;28;20522;-80
2023/06/24 04:36:42;;;;;;;17.60;15.13;;;16.30;99.90;;;;;;4998270;28;20517;-79
2023/06/24 04:39:08;;;;;;;16.03;14.43;;;16.30;99.90;;;;;;4933502;29;20595;-76
2023/06/24 04:41:33;;;;;;;16.02;14.45;;;16.30;99.90;;;;;;4933193;28;20423;-79
2023/06/24 04:43:59;;;;;;;15.38;13.90;;;16.50;99.90;;;;;;4955832;28;20444;-82
2023/06/24 04:46:25;;;;;;;15.82;14.18;;;16.40;99.90;;;;;;4932268;28;20428;-78
2023/06/24 04:48:51;;;;;;;16.92;14.95;;;16.50;99.90;;;;;;5026940;28;20426;-80
2023/06/24 04:51:16;;;;;;;15.73;14.23;;;16.60;99.90;;;;;;4944680;28;20914;-77
2023/06/24 04:53:42;;;;;;;16.70;13.70;;;16.90;99.90;;;;;;4931889;28;20473;-80
2023/06/24 04:56:08;;;;;;;15.48;13.98;;;16.90;99.90;;;;;;4935312;28;20510;-81
2023/06/24 04:58:33;;;;;;;25.40;14.80;;;16.90;99.90;;;;;;4993376;28;20427;-80
2023/06/24 05:00:59;;;;;;;17.03;14.60;;;16.90;99.90;;;;;;4958898;28;20420;-81
2023/06/24 05:03:25;;;;;;;15.27;13.60;;;17.10;99.90;;;;;;4935367;29;20871;-80
2023/06/24 05:05:50;;;;;;;14.73;13.43;;;17.20;99.90;;;;;;4931821;29;20499;-81
2023/06/24 05:08:16;;;;;;;15.77;14.18;;;17.30;99.90;;;;;;4964801;28;20434;-80
2023/06/24 05:10:42;;;;;;;15.90;13.68;;;17.20;99.90;;;;;;4920095;28;20515;-77
2023/06/24 05:13:08;;;;;;;15.50;13.97;;;17.30;99.90;;;;;;4977384;28;20442;-80
2023/06/24 05:15:33;;;;;;;15.73;14.13;;;17.40;99.90;;;;;;4968779;28;20426;-80
2023/06/24 05:17:59;;;;;;;15.63;14.13;;;17.30;99.90;;;;;;4965874;28;20525;-79
2023/06/24 05:20:25;;;;;;;16.08;14.38;;;17.40;99.90;;;;;;4915113;29;20752;-81
2023/06/24 05:22:51;;;;;;;15.52;14.05;;;17.40;99.90;;;;;;4952346;28;20928;-79
2023/06/24 05:25:16;;;;;;;18.27;15.07;;;17.60;99.90;;;;;;4997954;28;20456;-77
2023/06/24 05:27:44;;;;;;;16.10;14.37;;;17.70;99.90;;;;;;4931467;29;20435;-77
2023/06/24 05:30:10;;;;;;;16.13;14.32;;;17.70;99.90;;;;;;4930625;29;20416;-81
2023/06/24 05:32:36;;;;;;;14.32;12.90;;;17.80;99.90;;;;;;4940020;28;20442;-76
2023/06/24 05:35:02;;;;;;;16.60;14.85;;;17.90;99.90;;;;;;5014438;28;20430;-86
2023/06/24 05:37:28;;;;;;;14.75;13.32;;;17.90;99.90;;;;;;4959280;28;20457;-85
2023/06/24 05:39:55;;;;;;;15.65;13.57;;;18.00;99.90;;;;;;4955190;28;20448;-81
2023/06/24 05:42:22;;;;;;;15.93;14.23;;;18.10;99.90;;;;;;4942235;29;20443;-79
2023/06/24 05:44:48;;;;;;;14.38;13.07;;;18.40;99.90;;;;;;4943777;29;20846;-79
2023/06/24 05:47:14;;;;;;;15.43;13.53;;;18.40;99.90;;;;;;4943637;29;20414;-81
2023/06/24 05:49:40;;;;;;;14.27;12.73;;;18.40;99.90;;;;;;4948116;28;20469;-82
2023/06/24 05:52:06;;;;;;;13.10;12.00;;;18.50;99.90;;;;;;5002467;28;20426;-82
2023/06/24 05:54:31;;;;;;;14.57;12.98;;;18.60;99.90;;;;;;5024425;28;20432;-83
2023/06/24 05:56:57;;;;;;;16.55;12.82;;;18.80;99.90;;;;;;4951114;28;20431;-84
2023/06/24 05:59:23;;;;;;;14.17;12.70;;;18.80;99.90;;;;;;4941770;29;20419;-78
2023/06/24 06:01:48;;;;;;;14.20;12.13;;;18.90;99.90;;;;;;4987628;28;20767;-77
2023/06/24 06:04:14;;;;;;;13.23;11.88;;;19.00;99.90;;;;;;5038902;28;20423;-83
2023/06/24 06:06:40;;;;;;;13.50;12.10;;;19.10;99.90;;;;;;5000825;28;20447;-81
2023/06/24 06:09:06;;;;;;;13.07;11.83;;;19.20;99.90;;;;;;4937612;29;20459;-82
2023/06/24 06:11:32;;;;;;;13.00;11.70;;;19.30;99.90;;;;;;4943428;28;20815;-78
2023/06/24 06:13:57;;;;;;;20.63;12.63;;;19.40;99.90;;;;;;5020335;28;20441;-81
2023/06/24 06:16:23;;;;;;;12.55;11.25;;;19.60;99.90;;;;;;4992236;28;20450;-81
2023/06/24 06:18:49;;;;;;;12.57;11.35;;;19.80;99.90;;;;;;5031821;28;20471;-81
2023/06/24 06:21:14;;;;;;;11.97;10.60;;;20.00;99.90;;;;;;4957336;28;20420;-81
2023/06/24 06:23:40;;;;;;;13.23;11.80;;;20.20;99.90;;;;;;5033645;28;20488;-82
2023/06/24 06:26:06;;;;;;;11.85;10.65;;;20.40;99.90;;;;;;4996602;28;20876;-84
2023/06/24 06:28:32;;;;;;;12.82;10.95;;;20.50;99.90;;;;;;5028849;28;20509;-81
2023/06/24 06:30:57;;;;;;;12.57;10.47;;;20.60;99.90;;;;;;5033944;28;20455;-81
2023/06/24 06:33:23;;;;;;;12.40;10.65;;;20.60;99.90;;;;;;4943764;28;20459;-79
2023/06/24 06:35:49;;;;;;;11.55;10.45;;;20.70;99.90;;;;;;4949050;29;20431;-83
2023/06/24 06:38:15;;;;;;;11.80;10.60;;;20.80;99.90;;;;;;4980345;28;20814;-81
2023/06/24 06:40:40;;;;;;;11.57;10.43;;;20.90;99.90;;;;;;4920844;29;20440;-83
2023/06/24 06:43:06;;;;;;;11.07;9.93;;;21.00;99.90;;;;;;4936173;29;20447;-80
2023/06/24 06:45:32;;;;;;;12.07;10.88;;;21.00;99.90;;;;;;4931392;29;20423;-80
2023/06/24 06:47:57;;;;;;;11.33;10.30;;;21.10;99.90;;;;;;4931435;28;20482;-79
2023/06/24 06:50:23;;;;;;;11.88;10.68;;;21.20;99.90;;;;;;4925813;29;20424;-82
2023/06/24 06:52:49;;;;;;;12.75;10.52;;;21.20;99.90;;;;;;4924677;29;20440;-80
2023/06/24 06:55:14;;;;;;;10.77;9.67;;;21.40;99.90;;;;;;4970923;28;20463;-81
2023/06/24 06:57:40;;;;;;;11.15;10.15;;;21.50;99.90;;;;;;4933779;29;20439;-82
2023/06/24 07:00:07;;;;;;;12.07;10.40;;;21.50;99.90;;;;;;5021823;28;20430;-78
2023/06/24 07:02:32;;;;;;;13.30;10.40;;;21.70;99.90;;;;;;4940255;29;20505;-87
2023/06/24 07:04:59;;;;;;;10.20;9.13;;;21.90;99.90;;;;;;4927987;28;20436;-79
2023/06/24 07:07:25;;;;;;;13.18;10.57;;;21.90;99.90;;;;;;4955457;28;20416;-82
2023/06/24 07:09:50;;;;;;;10.77;9.73;;;22.00;99.90;;;;;;5042846;28;20488;-81
2023/06/24 07:12:16;;;;;;;11.13;10.07;;;22.10;99.90;;;;;;5027895;28;20495;-81
2023/06/24 07:14:42;;;;;;;11.55;10.35;;;22.20;99.90;;;;;;4975508;28;20516;-81
2023/06/24 07:17:07;;;;;;;10.35;9.18;;;22.10;99.90;;;;;;4951212;29;20416;-79
2023/06/24 07:19:33;;;;;;;14.17;10.37;;;22.30;99.90;;;;;;4925412;29;20439;-82
2023/06/24 07:21:59;;;;;;;10.37;9.33;;;22.40;99.90;;;;;;4943541;29;20442;-87
2023/06/24 07:24:25;;;;;;;12.65;9.10;;;22.60;99.90;;;;;;4924398;29;20448;-84
2023/06/24 07:26:50;;;;;;;9.93;8.97;;;22.80;99.90;;;;;;4924042;29;20408;-85
2023/06/24 07:29:16;;;;;;;10.90;9.90;;;22.60;99.90;;;;;;4952083;28;20427;-80
2023/06/24 07:31:42;;;;;;;12.40;9.77;;;22.70;99.90;;;;;;4991644;28;20561;-82
2023/06/24 07:34:08;;;;;;;9.87;8.97;;;22.60;99.90;;;;;;4972635;28;20434;-78
2023/06/24 07:36:33;;;;;;;11.90;9.70;;;22.60;99.90;;;;;;5043756;28;20411;-85
2023/06/24 07:38:59;;;;;;;11.02;9.30;;;22.50;99.90;;;;;;5018394;28;20435;-84
2023/06/24 07:41:25;;;;;;;10.38;9.27;;;22.60;99.90;;;;;;5018222;28;20442;-82
2023/06/24 07:43:51;;;;;;;10.40;9.30;;;22.60;99.90;;;;;;4943398;28;20474;-85
2023/06/24 07:46:17;;;;;;;10.77;9.68;;;22.60;99.90;;;;;;5026037;28;20415;-81
2023/06/24 07:48:43;;;;;;;11.10;10.00;;;22.60;99.90;;;;;;5033302;28;20445;-82
2023/06/24 07:51:09;;;;;;;10.57;9.35;;;22.60;99.90;;;;;;4940468;28;20416;-80
2023/06/24 07:53:35;;;;;;;12.30;10.40;;;22.60;99.90;;;;;;4920237;28;20450;-85
2023/06/24 07:56:01;;;;;;;12.20;10.00;;;22.60;99.90;;;;;;4956974;28;20435;-87
2023/06/24 07:58:26;;;;;;;10.93;9.32;;;22.60;99.90;;;;;;5000145;28;20420;-85
2023/06/24 08:00:52;;;;;;;12.83;9.17;;;22.70;99.90;;;;;;4958522;28;20581;-80
2023/06/24 08:03:18;;;;;;;11.05;9.43;;;22.70;99.90;;;;;;4929829;28;20483;-80
2023/06/24 08:05:43;;;;;;;10.57;9.50;;;22.70;99.90;;;;;;5030447;28;20800;-84
2023/06/24 08:08:09;;;;;;;11.73;9.95;;;22.80;99.90;;;;;;4942535;28;20426;-86
2023/06/24 08:10:35;;;;;;;9.93;8.77;;;22.90;99.90;;;;;;4900790;28;20501;-81
2023/06/24 08:13:01;;;;;;;9.43;8.52;;;22.80;99.90;;;;;;4931019;29;20525;-83
2023/06/24 08:15:26;;;;;;;10.60;8.77;;;23.00;99.90;;;;;;4916572;28;20919;-81
2023/06/24 08:17:53;;;;;;;9.13;8.18;;;23.10;99.90;;;;;;4916774;29;20457;-82
2023/06/24 08:20:21;;;;;;;10.15;8.55;;;23.20;99.90;;;;;;4914817;28;20453;-79
2023/06/24 08:22:46;;;;;;;9.98;8.98;;;23.20;99.90;;;;;;4920071;28;20439;-81
2023/06/24 08:25:12;;;;;;;9.07;8.10;;;23.30;99.90;;;;;;4921131;28;20521;-84
2023/06/24 08:27:38;;;;;;;9.55;8.52;;;23.40;99.90;;;;;;4927123;28;20423;-84
2023/06/24 08:30:05;;;;;;;10.30;9.18;;;23.50;99.90;;;;;;4952584;28;20430;-80
2023/06/24 08:32:31;;;;;;;11.47;9.70;;;23.60;99.90;;;;;;4938419;28;20518;-81
2023/06/24 08:34:57;;;;;;;12.38;9.95;;;23.80;99.90;;;;;;4940623;28;20616;-80
2023/06/24 08:37:22;;;;;;;10.63;9.60;;;23.80;99.90;;;;;;4961224;28;20445;-85
2023/06/24 08:39:48;;;;;;;10.77;9.53;;;23.80;99.90;;;;;;4963139;28;20488;-78
2023/06/24 08:42:14;;;;;;;11.88;9.98;;;23.90;99.90;;;;;;4935071;28;20422;-87
2023/06/24 08:44:43;;;;;;;9.80;8.40;;;23.90;99.90;;;;;;4948512;28;20453;-86
2023/06/24 08:47:09;;;;;;;10.57;8.95;;;24.00;99.90;;;;;;4953004;28;20457;-85
2023/06/24 08:49:44;;;;;;;9.80;8.80;;;24.00;99.90;;;;;;4915699;28;20436;-87
2023/06/24 08:52:14;;;;;;;10.40;8.73;;;24.20;99.90;;;;;;4903124;28;20842;-82
2023/06/24 08:54:41;;;;;;;11.00;7.70;;;24.50;99.90;;;;;;4940620;28;20446;-87
2023/06/24 08:57:08;;;;;;;8.57;7.63;;;24.70;99.90;;;;;;4940774;28;20441;-90
2023/06/24 08:59:34;;;;;;;10.52;8.13;;;25.10;99.90;;;;;;4936040;28;20568;-83
2023/06/24 09:02:01;;;;;;;9.55;8.55;;;25.00;99.90;;;;;;4970777;28;20441;-82
2023/06/24 09:04:26;;;;;;;8.07;7.15;;;24.70;99.90;;;;;;4961568;28;20516;-79
2023/06/24 09:06:53;;;;;;;7.95;7.15;;;25.20;99.90;;;;;;4945822;28;20429;-84
2023/06/24 09:09:28;;;;;;;9.52;7.07;;;25.50;99.90;;;;;;4933477;28;20856;-80
2023/06/24 09:11:54;;;;;;;10.18;7.78;;;25.80;99.90;;;;;;4925229;28;20437;-82
2023/06/24 09:14:20;;;;;;;9.57;7.30;;;25.70;99.90;;;;;;4939368;28;20433;-82
2023/06/24 09:17:06;;;;;;;8.10;7.13;;;25.80;99.90;;;;;;4922792;28;20437;-86
2023/06/24 09:19:36;;;;;;;10.77;7.63;;;25.90;99.90;;;;;;4922446;29;20421;-84
2023/06/24 09:22:16;;;;;;;9.23;7.85;;;25.90;99.90;;;;;;4919147;28;20437;-82
2023/06/24 09:24:42;;;;;;;8.32;7.53;;;26.30;99.90;;;;;;4930993;28;20438;-84
2023/06/24 09:27:08;;;;;;;8.60;6.75;;;26.30;99.90;;;;;;4931981;28;20521;-83
2023/06/24 09:29:35;;;;;;;12.87;7.83;;;26.40;99.90;;;;;;4920307;29;20469;-88
2023/06/24 09:32:05;;;;;;;11.13;7.43;;;26.40;99.90;;;;;;4996451;28;20437;-87
2023/06/24 09:34:32;;;;;;;11.90;6.93;;;26.40;99.90;;;;;;4994457;28;20445;-83
2023/06/24 09:36:59;;;;;;;8.80;7.30;;;26.40;99.90;;;;;;4920294;29;20967;-80
2023/06/24 09:39:30;;;;;;;9.77;6.80;;;26.10;99.90;;;;;;4917149;29;20497;-82
2023/06/24 09:42:00;;;;;;;7.20;6.47;;;26.30;99.90;;;;;;4916607;28;20465;-84
2023/06/24 09:44:27;;;;;;;7.05;5.88;;;26.50;99.90;;;;;;4913220;28;20515;-86
2023/06/24 09:46:53;;;;;;;6.45;5.85;;;26.40;99.90;;;;;;4977081;28;20412;-84
2023/06/24 09:49:19;;;;;;;8.25;6.75;;;26.50;99.90;;;;;;5018523;28;20446;-80
2023/06/24 09:51:50;;;;;;;7.30;5.70;;;26.60;99.90;;;;;;4931704;28;21016;-82
2023/06/24 09:54:16;;;;;;;7.10;6.03;;;26.70;99.90;;;;;;4942923;28;20765;-80
2023/06/24 09:56:50;;;;;;;8.65;6.05;;;26.70;99.90;;;;;;4964982;28;20426;-84
2023/06/24 09:59:24;;;;;;;9.00;5.97;;;26.80;99.90;;;;;;4927794;29;20442;-81
2023/06/24 10:01:53;;;;;;;10.47;6.90;;;26.70;99.90;;;;;;4914170;29;20443;-82
2023/06/24 10:04:21;;;;;;;7.00;5.93;;;26.70;99.90;;;;;;4918944;29;20433;-85
2023/06/24 10:06:48;;;;;;;6.17;5.60;;;26.90;99.90;;;;;;4962776;28;22016;-84
2023/06/24 10:09:16;;;;;;;5.78;5.18;;;27.00;99.90;;;;;;4952102;28;20470;-81
2023/06/24 10:11:46;;;;;;;7.13;6.43;;;27.00;99.90;;;;;;4962439;28;20429;-82
2023/06/24 10:14:12;;;;;;;8.07;5.05;;;26.80;99.90;;;;;;5004942;28;20490;-79
2023/06/24 10:16:38;;;;;;;8.90;5.72;;;26.90;99.90;;;;;;4954638;28;20428;-83
2023/06/24 10:19:05;;;;;;;7.45;4.63;;;27.10;99.90;;;;;;4935251;28;20462;-83
2023/06/24 10:21:54;;;;;;;6.95;6.00;;;27.20;99.90;;;;;;4952318;29;20428;-82
2023/06/24 10:24:33;;;;;;;6.53;5.25;;;27.20;99.90;;;;;;4942548;29;20451;-84
2023/06/24 10:27:06;;;;;;;6.50;5.67;;;27.30;99.90;;;;;;4934726;28;20443;-84
2023/06/24 10:29:34;;;;;;;8.00;5.22;;;27.10;99.90;;;;;;4928459;28;20512;-80
2023/06/24 10:32:07;;;;;;;6.00;4.57;;;26.50;99.90;;;;;;4931035;28;20431;-80
2023/06/24 10:34:47;;;;;;;5.60;4.90;;;26.60;99.90;;;;;;4948670;28;20934;-80
2023/06/24 10:37:31;;;;;;;7.32;5.82;;;27.20;99.90;;;;;;4922485;28;20526;-81
2023/06/24 10:40:01;;;;;;;4.90;4.43;;;27.20;99.90;;;;;;4943033;29;20465;-81
2023/06/24 10:42:36;;;;;;;4.47;4.07;;;26.50;99.90;;;;;;4955508;28;20774;-81
2023/06/24 10:45:13;;;;;;;7.07;4.30;;;26.50;99.90;;;;;;4937580;29;20462;-83
2023/06/24 10:48:00;;;;;;;7.22;4.40;;;26.10;99.90;;;;;;4939058;28;20519;-83
2023/06/24 10:50:26;;;;;;;6.97;4.47;;;26.30;99.90;;;;;;4916762;29;20480;-81
2023/06/24 10:52:56;;;;;;;5.50;3.85;;;26.60;99.90;;;;;;4926958;29;20447;-81
2023/06/24 10:55:28;;;;;;;10.00;5.13;;;27.10;99.90;;;;;;4933550;29;20414;-80
2023/06/24 10:57:53;;;;;;;7.53;4.25;;;27.20;99.90;;;;;;4942848;29;20498;-83
2023/06/24 11:00:21;;;;;;;6.78;3.90;;;27.40;99.90;;;;;;4917721;28;20951;-79
2023/06/24 11:02:46;;;;;;;5.45;4.20;;;27.30;99.90;;;;;;4942947;29;20434;-83
2023/06/24 11:05:12;;;;;;;6.80;4.77;;;27.20;99.90;;;;;;4918840;28;20483;-83
2023/06/24 11:07:38;;;;;;;6.00;4.30;;;27.40;99.90;;;;;;4957551;28;20439;-80
2023/06/24 11:10:13;;;;;;;5.30;4.72;;;27.50;99.90;;;;;;4916357;29;20432;-84
2023/06/24 11:12:40;;;;;;;4.80;4.00;;;27.60;99.90;;;;;;4980216;28;20499;-82
2023/06/24 11:15:08;;;;;;;6.45;4.20;;;27.70;99.90;;;;;;4936023;28;20921;-80
2023/06/24 11:17:35;;;;;;;10.68;5.40;;;28.00;99.90;;;;;;4958183;28;20946;-82
2023/06/24 11:20:02;;;;;;;5.28;4.28;;;28.10;99.90;;;;;;4934924;29;20439;-79
2023/06/24 11:22:27;;;;;;;8.30;5.20;;;27.60;99.90;;;;;;4932512;28;20427;-81
2023/06/24 11:24:54;;;;;;;7.22;5.07;;;27.70;99.90;;;;;;4937575;28;20510;-82
2023/06/24 11:27:25;;;;;;;7.55;4.47;;;28.10;99.90;;;;;;4942490;28;21038;-81
2023/06/24 11:29:53;;;;;;;5.78;4.28;;;28.00;99.90;;;;;;4936282;29;20529;-81
2023/06/24 11:32:19;;;;;;;6.75;4.13;;;27.70;99.90;;;;;;4924781;28;20443;-78
2023/06/24 11:34:46;;;;;;;6.97;4.90;;;27.40;99.90;;;;;;4923938;29;20440;-85
2023/06/24 11:37:12;;;;;;;8.50;4.40;;;27.10;99.90;;;;;;4920845;28;20436;-82
2023/06/24 11:39:39;;;;;;;6.13;4.13;;;27.30;99.90;;;;;;4979973;28;20447;-77
2023/06/24 11:42:07;;;;;;;7.03;4.88;;;27.60;99.90;;;;;;4939109;29;20450;-81
2023/06/24 11:44:33;;;;;;;6.28;4.55;;;27.80;99.90;;;;;;5047952;28;20442;-83
2023/06/24 11:47:06;;;;;;;5.45;4.57;;;27.60;99.90;;;;;;5007414;28;20436;-82
2023/06/24 11:49:32;;;;;;;6.50;5.07;;;27.60;99.90;;;;;;4902037;29;20461;-91
2023/06/24 11:51:58;;;;;;;5.07;4.00;;;27.30;99.90;;;;;;4917533;28;20885;-81
2023/06/24 11:54:24;;;;;;;6.88;4.82;;;27.60;99.90;;;;;;4956556;29;20922;-84
2023/06/24 11:56:53;;;;;;;7.20;4.25;;;27.20;99.90;;;;;;4938622;28;20431;-82
2023/06/24 11:59:25;;;;;;;7.25;6.20;;;27.00;99.90;;;;;;4941633;29;20481;-83
2023/06/24 12:01:56;;;;;;;7.53;5.78;;;26.80;99.90;;;;;;4926998;28;20427;-81
2023/06/24 12:04:28;;;;;;;8.18;5.18;;;26.50;99.90;;;;;;4941204;28;20448;-80
2023/06/24 12:06:54;;;;;;;7.70;4.72;;;26.60;99.90;;;;;;4941625;29;20424;-85
2023/06/24 12:09:20;;;;;;;8.38;5.60;;;26.80;99.90;;;;;;4921268;29;20525;-77
2023/06/24 12:11:45;;;;;;;5.90;5.10;;;27.00;99.90;;;;;;4948145;29;20429;-80
2023/06/24 12:14:11;;;;;;;10.50;4.15;;;27.20;99.90;;;;;;4951441;28;20463;-83
2023/06/24 12:16:38;;;;;;;4.38;3.42;;;27.10;99.90;;;;;;4938554;28;20499;-83
2023/06/24 12:19:04;;;;;;;5.72;4.68;;;26.90;99.90;;;;;;4935985;29;20435;-82
2023/06/24 12:21:30;;;;;;;5.57;4.23;;;26.70;99.90;;;;;;4936495;29;20432;-83
2023/06/24 12:23:55;;;;;;;3.92;3.38;;;27.00;99.90;;;;;;4943234;29;20482;-83
2023/06/24 12:26:21;;;;;;;5.30;3.50;;;27.10;99.90;;;;;;4935990;28;20420;-83
2023/06/24 12:28:47;;;;;;;6.40;3.67;;;27.00;99.90;;;;;;4949744;28;20941;-83
2023/06/24 12:31:12;;;;;;;6.07;3.97;;;27.10;99.90;;;;;;4935469;28;20443;-81
2023/06/24 12:33:38;;;;;;;6.70;3.63;;;27.30;99.90;;;;;;4969493;28;20422;-81
2023/06/24 12:36:04;;;;;;;5.67;3.90;;;27.70;99.90;;;;;;4935059;28;20415;-83